sensor_id;sensor_type;location;lat;lon;timestamp;P1;durP1;ratioP1;P2;durP2;ratioP2
66603;SDS011;53460;39.612;8.822;2023-12-20T00:00:57;10.23;;;8.20;;
66603;SDS011;53460;39.612;8.822;2023-12-20T00:03:23;9.68;;;7.85;;
66603;SDS011;53460;39.612;8.822;2023-12-20T00:05:49;7.82;;;7.03;;
66603;SDS011;53460;39.612;8.822;2023-12-20T00:08:15;7.53;;;6.72;;
66603;SDS011;53460;39.612;8.822;2023-12-20T00:10:42;9.50;;;7.35;;
66603;SDS011;53460;39.612;8.822;2023-12-20T00:13:09;7.15;;;6.30;;
66603;SDS011;53460;39.612;8.822;2023-12-20T00:15:35;7.25;;;6.25;;
66603;SDS011;53460;39.612;8.822;2023-12-20T00:18:00;7.40;;;6.65;;
66603;SDS011;53460;39.612;8.822;2023-12-20T00:20:26;8.02;;;5.90;;
66603;SDS011;53460;39.612;8.822;2023-12-20T00:22:54;7.05;;;6.25;;
66603;SDS011;53460;39.612;8.822;2023-12-20T00:25:21;6.55;;;5.95;;
66603;SDS011;53460;39.612;8.822;2023-12-20T00:27:47;8.05;;;5.97;;
66603;SDS011;53460;39.612;8.822;2023-12-20T00:30:12;8.93;;;6.50;;
66603;SDS011;53460;39.612;8.822;2023-12-20T00:32:38;8.43;;;6.18;;
66603;SDS011;53460;39.612;8.822;2023-12-20T00:35:04;7.10;;;6.20;;
66603;SDS011;53460;39.612;8.822;2023-12-20T00:37:30;6.80;;;5.93;;
66603;SDS011;53460;39.612;8.822;2023-12-20T00:39:55;8.05;;;6.65;;
66603;SDS011;53460;39.612;8.822;2023-12-20T00:42:21;11.23;;;8.20;;
66603;SDS011;53460;39.612;8.822;2023-12-20T00:44:47;9.68;;;8.20;;
66603;SDS011;53460;39.612;8.822;2023-12-20T00:47:12;10.05;;;8.60;;
66603;SDS011;53460;39.612;8.822;2023-12-20T00:49:38;8.73;;;7.82;;
66603;SDS011;53460;39.612;8.822;2023-12-20T00:52:04;9.90;;;7.18;;
66603;SDS011;53460;39.612;8.822;2023-12-20T00:54:30;10.40;;;8.13;;
66603;SDS011;53460;39.612;8.822;2023-12-20T00:56:56;10.30;;;7.72;;
66603;SDS011;53460;39.612;8.822;2023-12-20T00:59:21;8.35;;;7.43;;
66603;SDS011;53460;39.612;8.822;2023-12-20T01:01:47;9.75;;;7.28;;
66603;SDS011;53460;39.612;8.822;2023-12-20T01:04:13;6.95;;;6.25;;
66603;SDS011;53460;39.612;8.822;2023-12-20T01:06:38;9.20;;;7.03;;
66603;SDS011;53460;39.612;8.822;2023-12-20T01:09:04;7.30;;;6.60;;
66603;SDS011;53460;39.612;8.822;2023-12-20T01:11:30;7.25;;;6.20;;
66603;SDS011;53460;39.612;8.822;2023-12-20T01:13:55;9.93;;;6.18;;
66603;SDS011;53460;39.612;8.822;2023-12-20T01:16:21;10.18;;;6.13;;
66603;SDS011;53460;39.612;8.822;2023-12-20T01:18:47;8.40;;;5.68;;
66603;SDS011;53460;39.612;8.822;2023-12-20T01:21:12;6.13;;;4.47;;
66603;SDS011;53460;39.612;8.822;2023-12-20T01:23:38;5.30;;;4.65;;
66603;SDS011;53460;39.612;8.822;2023-12-20T01:26:04;4.60;;;4.20;;
66603;SDS011;53460;39.612;8.822;2023-12-20T01:28:30;5.35;;;4.18;;
66603;SDS011;53460;39.612;8.822;2023-12-20T01:30:57;4.03;;;3.60;;
66603;SDS011;53460;39.612;8.822;2023-12-20T01:33:22;5.20;;;3.17;;
66603;SDS011;53460;39.612;8.822;2023-12-20T01:35:48;3.25;;;2.95;;
66603;SDS011;53460;39.612;8.822;2023-12-20T01:38:14;5.72;;;3.83;;
66603;SDS011;53460;39.612;8.822;2023-12-20T01:40:40;4.47;;;3.72;;
66603;SDS011;53460;39.612;8.822;2023-12-20T01:43:08;6.20;;;3.95;;
66603;SDS011;53460;39.612;8.822;2023-12-20T01:45:34;9.15;;;3.47;;
66603;SDS011;53460;39.612;8.822;2023-12-20T01:48:00;5.32;;;3.55;;
66603;SDS011;53460;39.612;8.822;2023-12-20T01:50:28;4.30;;;3.60;;
66603;SDS011;53460;39.612;8.822;2023-12-20T01:52:58;5.70;;;4.65;;
66603;SDS011;53460;39.612;8.822;2023-12-20T01:55:27;6.63;;;4.18;;
66603;SDS011;53460;39.612;8.822;2023-12-20T01:57:55;9.30;;;4.40;;
66603;SDS011;53460;39.612;8.822;2023-12-20T02:00:21;5.22;;;4.50;;
66603;SDS011;53460;39.612;8.822;2023-12-20T02:02:48;4.65;;;4.20;;
66603;SDS011;53460;39.612;8.822;2023-12-20T02:05:16;4.43;;;3.95;;
66603;SDS011;53460;39.612;8.822;2023-12-20T02:07:42;8.75;;;4.10;;
66603;SDS011;53460;39.612;8.822;2023-12-20T02:10:08;3.97;;;3.47;;
66603;SDS011;53460;39.612;8.822;2023-12-20T02:12:34;3.80;;;3.40;;
66603;SDS011;53460;39.612;8.822;2023-12-20T02:14:59;4.50;;;3.22;;
66603;SDS011;53460;39.612;8.822;2023-12-20T02:17:25;4.88;;;3.63;;
66603;SDS011;53460;39.612;8.822;2023-12-20T02:19:51;5.88;;;3.53;;
66603;SDS011;53460;39.612;8.822;2023-12-20T02:22:17;5.40;;;4.50;;
66603;SDS011;53460;39.612;8.822;2023-12-20T02:24:42;6.70;;;5.88;;
66603;SDS011;53460;39.612;8.822;2023-12-20T02:27:08;6.90;;;5.60;;
66603;SDS011;53460;39.612;8.822;2023-12-20T02:29:34;7.35;;;4.07;;
66603;SDS011;53460;39.612;8.822;2023-12-20T02:32:01;7.72;;;3.50;;
66603;SDS011;53460;39.612;8.822;2023-12-20T02:34:27;5.80;;;3.42;;
66603;SDS011;53460;39.612;8.822;2023-12-20T02:36:52;4.35;;;3.30;;
66603;SDS011;53460;39.612;8.822;2023-12-20T02:39:18;4.93;;;3.10;;
66603;SDS011;53460;39.612;8.822;2023-12-20T02:41:44;3.90;;;3.03;;
66603;SDS011;53460;39.612;8.822;2023-12-20T02:44:10;3.33;;;3.03;;
66603;SDS011;53460;39.612;8.822;2023-12-20T02:46:36;8.85;;;3.72;;
66603;SDS011;53460;39.612;8.822;2023-12-20T02:49:01;3.85;;;3.13;;
66603;SDS011;53460;39.612;8.822;2023-12-20T02:51:27;3.97;;;3.40;;
66603;SDS011;53460;39.612;8.822;2023-12-20T02:53:52;3.20;;;2.90;;
66603;SDS011;53460;39.612;8.822;2023-12-20T02:56:18;4.50;;;3.30;;
66603;SDS011;53460;39.612;8.822;2023-12-20T02:58:44;3.65;;;3.20;;
66603;SDS011;53460;39.612;8.822;2023-12-20T03:01:09;5.40;;;3.17;;
66603;SDS011;53460;39.612;8.822;2023-12-20T03:03:35;4.85;;;3.05;;
66603;SDS011;53460;39.612;8.822;2023-12-20T03:06:01;6.00;;;3.42;;
66603;SDS011;53460;39.612;8.822;2023-12-20T03:08:26;4.15;;;3.63;;
66603;SDS011;53460;39.612;8.822;2023-12-20T03:10:52;5.40;;;3.38;;
66603;SDS011;53460;39.612;8.822;2023-12-20T03:13:18;4.53;;;3.75;;
66603;SDS011;53460;39.612;8.822;2023-12-20T03:15:45;4.72;;;3.08;;
66603;SDS011;53460;39.612;8.822;2023-12-20T03:18:11;4.85;;;2.90;;
66603;SDS011;53460;39.612;8.822;2023-12-20T03:20:37;5.00;;;3.33;;
66603;SDS011;53460;39.612;8.822;2023-12-20T03:23:03;4.30;;;3.13;;
66603;SDS011;53460;39.612;8.822;2023-12-20T03:25:29;3.53;;;3.00;;
66603;SDS011;53460;39.612;8.822;2023-12-20T03:27:55;3.42;;;2.92;;
66603;SDS011;53460;39.612;8.822;2023-12-20T03:30:20;3.60;;;2.90;;
66603;SDS011;53460;39.612;8.822;2023-12-20T03:32:46;4.93;;;3.00;;
66603;SDS011;53460;39.612;8.822;2023-12-20T03:35:12;4.03;;;3.25;;
66603;SDS011;53460;39.612;8.822;2023-12-20T03:37:38;6.97;;;3.67;;
66603;SDS011;53460;39.612;8.822;2023-12-20T03:40:04;2.60;;;2.40;;
66603;SDS011;53460;39.612;8.822;2023-12-20T03:42:30;3.38;;;2.75;;
66603;SDS011;53460;39.612;8.822;2023-12-20T03:44:56;3.60;;;2.78;;
66603;SDS011;53460;39.612;8.822;2023-12-20T03:47:21;2.78;;;2.58;;
66603;SDS011;53460;39.612;8.822;2023-12-20T03:49:47;3.90;;;3.13;;
66603;SDS011;53460;39.612;8.822;2023-12-20T03:52:13;6.10;;;3.35;;
66603;SDS011;53460;39.612;8.822;2023-12-20T03:54:39;2.97;;;2.67;;
66603;SDS011;53460;39.612;8.822;2023-12-20T03:57:05;2.78;;;2.58;;
66603;SDS011;53460;39.612;8.822;2023-12-20T03:59:34;2.78;;;2.47;;
66603;SDS011;53460;39.612;8.822;2023-12-20T04:02:00;3.58;;;3.25;;
66603;SDS011;53460;39.612;8.822;2023-12-20T04:04:26;2.88;;;2.63;;
66603;SDS011;53460;39.612;8.822;2023-12-20T04:06:51;3.00;;;2.70;;
66603;SDS011;53460;39.612;8.822;2023-12-20T04:09:17;3.42;;;2.35;;
66603;SDS011;53460;39.612;8.822;2023-12-20T04:11:42;4.25;;;2.85;;
66603;SDS011;53460;39.612;8.822;2023-12-20T04:14:08;3.15;;;2.85;;
66603;SDS011;53460;39.612;8.822;2023-12-20T04:16:34;6.13;;;3.08;;
66603;SDS011;53460;39.612;8.822;2023-12-20T04:19:00;4.03;;;3.17;;
66603;SDS011;53460;39.612;8.822;2023-12-20T04:21:26;4.28;;;3.10;;
66603;SDS011;53460;39.612;8.822;2023-12-20T04:23:51;4.45;;;2.80;;
66603;SDS011;53460;39.612;8.822;2023-12-20T04:26:17;3.65;;;3.30;;
66603;SDS011;53460;39.612;8.822;2023-12-20T04:28:43;3.20;;;2.90;;
66603;SDS011;53460;39.612;8.822;2023-12-20T04:31:08;3.42;;;2.75;;
66603;SDS011;53460;39.612;8.822;2023-12-20T04:33:34;3.67;;;3.17;;
66603;SDS011;53460;39.612;8.822;2023-12-20T04:35:59;3.55;;;3.25;;
66603;SDS011;53460;39.612;8.822;2023-12-20T04:38:25;3.30;;;2.88;;
66603;SDS011;53460;39.612;8.822;2023-12-20T04:40:51;5.43;;;3.47;;
66603;SDS011;53460;39.612;8.822;2023-12-20T04:43:17;3.85;;;3.05;;
66603;SDS011;53460;39.612;8.822;2023-12-20T04:45:42;3.60;;;3.30;;
66603;SDS011;53460;39.612;8.822;2023-12-20T04:48:08;4.97;;;3.00;;
66603;SDS011;53460;39.612;8.822;2023-12-20T04:50:34;2.92;;;2.70;;
66603;SDS011;53460;39.612;8.822;2023-12-20T04:53:00;2.45;;;2.25;;
66603;SDS011;53460;39.612;8.822;2023-12-20T04:55:25;2.28;;;2.15;;
66603;SDS011;53460;39.612;8.822;2023-12-20T04:57:51;2.60;;;2.40;;
66603;SDS011;53460;39.612;8.822;2023-12-20T05:00:17;2.45;;;2.25;;
66603;SDS011;53460;39.612;8.822;2023-12-20T05:02:43;3.25;;;2.78;;
66603;SDS011;53460;39.612;8.822;2023-12-20T05:05:08;3.28;;;3.00;;
66603;SDS011;53460;39.612;8.822;2023-12-20T05:07:34;5.10;;;3.63;;
66603;SDS011;53460;39.612;8.822;2023-12-20T05:10:00;3.60;;;3.30;;
66603;SDS011;53460;39.612;8.822;2023-12-20T05:12:25;3.15;;;2.90;;
66603;SDS011;53460;39.612;8.822;2023-12-20T05:14:51;3.42;;;3.22;;
66603;SDS011;53460;39.612;8.822;2023-12-20T05:17:17;3.50;;;3.20;;
66603;SDS011;53460;39.612;8.822;2023-12-20T05:19:43;3.13;;;2.83;;
66603;SDS011;53460;39.612;8.822;2023-12-20T05:22:09;3.05;;;2.83;;
66603;SDS011;53460;39.612;8.822;2023-12-20T05:24:35;2.95;;;2.75;;
66603;SDS011;53460;39.612;8.822;2023-12-20T05:27:00;3.13;;;2.83;;
66603;SDS011;53460;39.612;8.822;2023-12-20T05:29:26;3.53;;;3.22;;
66603;SDS011;53460;39.612;8.822;2023-12-20T05:31:52;5.00;;;4.00;;
66603;SDS011;53460;39.612;8.822;2023-12-20T05:34:17;3.25;;;3.00;;
66603;SDS011;53460;39.612;8.822;2023-12-20T05:36:43;3.80;;;3.38;;
66603;SDS011;53460;39.612;8.822;2023-12-20T05:39:08;3.13;;;2.80;;
66603;SDS011;53460;39.612;8.822;2023-12-20T05:41:34;2.80;;;2.60;;
66603;SDS011;53460;39.612;8.822;2023-12-20T05:44:00;4.50;;;3.20;;
66603;SDS011;53460;39.612;8.822;2023-12-20T05:46:26;4.65;;;3.28;;
66603;SDS011;53460;39.612;8.822;2023-12-20T05:48:51;3.40;;;3.15;;
66603;SDS011;53460;39.612;8.822;2023-12-20T05:51:17;3.45;;;3.15;;
66603;SDS011;53460;39.612;8.822;2023-12-20T05:53:44;6.00;;;3.92;;
66603;SDS011;53460;39.612;8.822;2023-12-20T05:56:10;5.35;;;3.60;;
66603;SDS011;53460;39.612;8.822;2023-12-20T05:58:36;4.43;;;3.60;;
66603;SDS011;53460;39.612;8.822;2023-12-20T06:01:04;4.57;;;3.78;;
66603;SDS011;53460;39.612;8.822;2023-12-20T06:03:30;4.65;;;4.25;;
66603;SDS011;53460;39.612;8.822;2023-12-20T06:05:56;5.50;;;3.85;;
66603;SDS011;53460;39.612;8.822;2023-12-20T06:08:22;4.88;;;4.22;;
66603;SDS011;53460;39.612;8.822;2023-12-20T06:10:48;5.32;;;4.63;;
66603;SDS011;53460;39.612;8.822;2023-12-20T06:13:14;5.13;;;4.57;;
66603;SDS011;53460;39.612;8.822;2023-12-20T06:15:39;8.52;;;6.22;;
66603;SDS011;53460;39.612;8.822;2023-12-20T06:18:05;18.60;;;13.75;;
66603;SDS011;53460;39.612;8.822;2023-12-20T06:20:35;30.40;;;17.25;;
66603;SDS011;53460;39.612;8.822;2023-12-20T06:23:01;28.83;;;15.68;;
66603;SDS011;53460;39.612;8.822;2023-12-20T06:25:26;20.88;;;14.32;;
66603;SDS011;53460;39.612;8.822;2023-12-20T06:27:52;28.60;;;17.58;;
66603;SDS011;53460;39.612;8.822;2023-12-20T06:30:18;21.23;;;15.27;;
66603;SDS011;53460;39.612;8.822;2023-12-20T06:32:44;19.77;;;14.63;;
66603;SDS011;53460;39.612;8.822;2023-12-20T06:35:12;10.75;;;8.60;;
66603;SDS011;53460;39.612;8.822;2023-12-20T06:37:37;14.27;;;9.48;;
66603;SDS011;53460;39.612;8.822;2023-12-20T06:40:08;12.25;;;8.70;;
66603;SDS011;53460;39.612;8.822;2023-12-20T06:42:35;13.27;;;10.70;;
66603;SDS011;53460;39.612;8.822;2023-12-20T06:45:01;8.38;;;7.57;;
66603;SDS011;53460;39.612;8.822;2023-12-20T06:47:27;9.30;;;5.90;;
66603;SDS011;53460;39.612;8.822;2023-12-20T06:49:53;8.13;;;6.40;;
66603;SDS011;53460;39.612;8.822;2023-12-20T06:52:18;7.35;;;5.07;;
66603;SDS011;53460;39.612;8.822;2023-12-20T06:54:44;9.02;;;5.78;;
66603;SDS011;53460;39.612;8.822;2023-12-20T06:57:09;7.13;;;6.53;;
66603;SDS011;53460;39.612;8.822;2023-12-20T06:59:41;10.27;;;6.88;;
66603;SDS011;53460;39.612;8.822;2023-12-20T07:02:08;14.00;;;10.98;;
66603;SDS011;53460;39.612;8.822;2023-12-20T07:04:34;17.20;;;13.07;;
66603;SDS011;53460;39.612;8.822;2023-12-20T07:07:04;17.90;;;14.07;;
66603;SDS011;53460;39.612;8.822;2023-12-20T07:09:29;18.65;;;15.45;;
66603;SDS011;53460;39.612;8.822;2023-12-20T07:11:55;16.38;;;14.13;;
66603;SDS011;53460;39.612;8.822;2023-12-20T07:14:20;14.93;;;12.05;;
66603;SDS011;53460;39.612;8.822;2023-12-20T07:16:47;14.32;;;12.38;;
66603;SDS011;53460;39.612;8.822;2023-12-20T07:19:12;19.48;;;16.70;;
66603;SDS011;53460;39.612;8.822;2023-12-20T07:21:38;25.52;;;21.10;;
66603;SDS011;53460;39.612;8.822;2023-12-20T07:24:03;33.95;;;30.33;;
66603;SDS011;53460;39.612;8.822;2023-12-20T07:26:29;23.20;;;19.40;;
66603;SDS011;53460;39.612;8.822;2023-12-20T07:28:55;22.40;;;20.00;;
66603;SDS011;53460;39.612;8.822;2023-12-20T07:31:20;23.45;;;19.40;;
66603;SDS011;53460;39.612;8.822;2023-12-20T07:33:46;23.15;;;20.88;;
66603;SDS011;53460;39.612;8.822;2023-12-20T07:36:12;26.27;;;22.42;;
66603;SDS011;53460;39.612;8.822;2023-12-20T07:38:38;33.08;;;25.30;;
66603;SDS011;53460;39.612;8.822;2023-12-20T07:41:03;27.20;;;24.27;;
66603;SDS011;53460;39.612;8.822;2023-12-20T07:43:30;34.72;;;27.75;;
66603;SDS011;53460;39.612;8.822;2023-12-20T07:45:55;30.95;;;26.85;;
66603;SDS011;53460;39.612;8.822;2023-12-20T07:48:21;28.77;;;24.00;;
66603;SDS011;53460;39.612;8.822;2023-12-20T07:50:47;21.52;;;19.23;;
66603;SDS011;53460;39.612;8.822;2023-12-20T07:53:13;7.15;;;6.45;;
66603;SDS011;53460;39.612;8.822;2023-12-20T07:55:39;9.90;;;8.82;;
66603;SDS011;53460;39.612;8.822;2023-12-20T07:58:04;16.00;;;12.68;;
66603;SDS011;53460;39.612;8.822;2023-12-20T08:00:30;22.23;;;19.73;;
66603;SDS011;53460;39.612;8.822;2023-12-20T08:02:56;24.20;;;21.73;;
66603;SDS011;53460;39.612;8.822;2023-12-20T08:05:21;20.45;;;18.35;;
66603;SDS011;53460;39.612;8.822;2023-12-20T08:07:47;17.20;;;15.05;;
66603;SDS011;53460;39.612;8.822;2023-12-20T08:10:13;24.38;;;14.90;;
66603;SDS011;53460;39.612;8.822;2023-12-20T08:12:38;14.63;;;13.10;;
66603;SDS011;53460;39.612;8.822;2023-12-20T08:15:05;14.68;;;12.18;;
66603;SDS011;53460;39.612;8.822;2023-12-20T08:17:31;16.02;;;14.43;;
66603;SDS011;53460;39.612;8.822;2023-12-20T08:19:56;20.60;;;18.55;;
66603;SDS011;53460;39.612;8.822;2023-12-20T08:22:22;25.58;;;22.98;;
66603;SDS011;53460;39.612;8.822;2023-12-20T08:24:48;17.27;;;12.48;;
66603;SDS011;53460;39.612;8.822;2023-12-20T08:27:14;10.82;;;9.73;;
66603;SDS011;53460;39.612;8.822;2023-12-20T08:29:39;11.73;;;9.55;;
66603;SDS011;53460;39.612;8.822;2023-12-20T08:32:05;7.85;;;7.05;;
66603;SDS011;53460;39.612;8.822;2023-12-20T08:34:31;8.27;;;5.70;;
66603;SDS011;53460;39.612;8.822;2023-12-20T08:36:56;35.97;;;26.67;;
66603;SDS011;53460;39.612;8.822;2023-12-20T08:39:22;29.27;;;20.90;;
66603;SDS011;53460;39.612;8.822;2023-12-20T08:41:48;5.97;;;4.68;;
66603;SDS011;53460;39.612;8.822;2023-12-20T08:44:13;6.82;;;4.78;;
66603;SDS011;53460;39.612;8.822;2023-12-20T08:46:39;4.13;;;3.83;;
66603;SDS011;53460;39.612;8.822;2023-12-20T08:49:05;8.70;;;4.95;;
66603;SDS011;53460;39.612;8.822;2023-12-20T08:51:30;10.00;;;8.98;;
66603;SDS011;53460;39.612;8.822;2023-12-20T08:53:56;12.18;;;10.90;;
66603;SDS011;53460;39.612;8.822;2023-12-20T08:56:22;11.18;;;9.30;;
66603;SDS011;53460;39.612;8.822;2023-12-20T08:58:47;5.65;;;4.93;;
66603;SDS011;53460;39.612;8.822;2023-12-20T09:01:13;5.82;;;5.03;;
66603;SDS011;53460;39.612;8.822;2023-12-20T09:03:40;7.88;;;4.80;;
66603;SDS011;53460;39.612;8.822;2023-12-20T09:06:06;7.18;;;4.15;;
66603;SDS011;53460;39.612;8.822;2023-12-20T09:08:31;4.15;;;3.70;;
66603;SDS011;53460;39.612;8.822;2023-12-20T09:10:58;4.18;;;3.78;;
66603;SDS011;53460;39.612;8.822;2023-12-20T09:13:24;5.53;;;3.33;;
66603;SDS011;53460;39.612;8.822;2023-12-20T09:15:56;4.55;;;2.95;;
66603;SDS011;53460;39.612;8.822;2023-12-20T09:18:22;8.30;;;3.35;;
66603;SDS011;53460;39.612;8.822;2023-12-20T09:20:47;6.43;;;3.65;;
66603;SDS011;53460;39.612;8.822;2023-12-20T09:23:13;3.22;;;2.58;;
66603;SDS011;53460;39.612;8.822;2023-12-20T09:25:39;6.85;;;3.42;;
66603;SDS011;53460;39.612;8.822;2023-12-20T09:28:05;2.88;;;2.65;;
66603;SDS011;53460;39.612;8.822;2023-12-20T09:30:30;4.03;;;2.78;;
66603;SDS011;53460;39.612;8.822;2023-12-20T09:32:57;3.25;;;2.28;;
66603;SDS011;53460;39.612;8.822;2023-12-20T09:35:22;2.30;;;2.10;;
66603;SDS011;53460;39.612;8.822;2023-12-20T09:37:49;3.15;;;2.10;;
66603;SDS011;53460;39.612;8.822;2023-12-20T09:40:14;2.70;;;2.00;;
66603;SDS011;53460;39.612;8.822;2023-12-20T09:45:19;4.78;;;2.08;;
66603;SDS011;53460;39.612;8.822;2023-12-20T09:47:46;2.28;;;1.88;;
66603;SDS011;53460;39.612;8.822;2023-12-20T09:50:13;3.35;;;2.28;;
66603;SDS011;53460;39.612;8.822;2023-12-20T09:52:39;3.33;;;2.42;;
66603;SDS011;53460;39.612;8.822;2023-12-20T09:55:05;4.18;;;2.03;;
66603;SDS011;53460;39.612;8.822;2023-12-20T09:57:33;5.30;;;2.10;;
66603;SDS011;53460;39.612;8.822;2023-12-20T09:59:59;7.38;;;1.90;;
66603;SDS011;53460;39.612;8.822;2023-12-20T10:02:25;3.30;;;1.77;;
66603;SDS011;53460;39.612;8.822;2023-12-20T10:04:54;4.72;;;2.10;;
66603;SDS011;53460;39.612;8.822;2023-12-20T10:07:20;4.22;;;2.05;;
66603;SDS011;53460;39.612;8.822;2023-12-20T10:09:47;3.92;;;2.53;;
66603;SDS011;53460;39.612;8.822;2023-12-20T10:12:13;6.57;;;3.80;;
66603;SDS011;53460;39.612;8.822;2023-12-20T10:14:39;5.63;;;2.80;;
66603;SDS011;53460;39.612;8.822;2023-12-20T10:17:05;4.22;;;3.05;;
66603;SDS011;53460;39.612;8.822;2023-12-20T10:19:32;4.20;;;3.05;;
66603;SDS011;53460;39.612;8.822;2023-12-20T10:22:00;5.53;;;3.78;;
66603;SDS011;53460;39.612;8.822;2023-12-20T10:27:02;6.45;;;4.78;;
66603;SDS011;53460;39.612;8.822;2023-12-20T10:29:35;8.18;;;5.78;;
66603;SDS011;53460;39.612;8.822;2023-12-20T10:34:50;5.50;;;3.83;;
66603;SDS011;53460;39.612;8.822;2023-12-20T10:37:16;7.40;;;2.80;;
66603;SDS011;53460;39.612;8.822;2023-12-20T10:39:42;6.75;;;3.05;;
66603;SDS011;53460;39.612;8.822;2023-12-20T10:42:09;8.23;;;4.00;;
66603;SDS011;53460;39.612;8.822;2023-12-20T10:44:37;8.43;;;3.55;;
66603;SDS011;53460;39.612;8.822;2023-12-20T10:47:03;6.65;;;3.80;;
66603;SDS011;53460;39.612;8.822;2023-12-20T10:49:30;6.88;;;3.80;;
66603;SDS011;53460;39.612;8.822;2023-12-20T10:51:57;17.90;;;4.15;;
66603;SDS011;53460;39.612;8.822;2023-12-20T10:54:25;9.27;;;4.47;;
66603;SDS011;53460;39.612;8.822;2023-12-20T10:56:51;7.03;;;3.65;;
66603;SDS011;53460;39.612;8.822;2023-12-20T10:59:18;8.13;;;3.25;;
66603;SDS011;53460;39.612;8.822;2023-12-20T11:01:47;8.35;;;2.58;;
66603;SDS011;53460;39.612;8.822;2023-12-20T11:04:15;8.75;;;3.75;;
66603;SDS011;53460;39.612;8.822;2023-12-20T11:06:49;7.93;;;3.63;;
66603;SDS011;53460;39.612;8.822;2023-12-20T11:09:25;11.53;;;4.97;;
66603;SDS011;53460;39.612;8.822;2023-12-20T11:14:51;15.68;;;4.43;;
66603;SDS011;53460;39.612;8.822;2023-12-20T11:17:21;12.30;;;5.28;;
66603;SDS011;53460;39.612;8.822;2023-12-20T11:22:21;7.27;;;3.30;;
66603;SDS011;53460;39.612;8.822;2023-12-20T11:24:47;10.00;;;3.83;;
66603;SDS011;53460;39.612;8.822;2023-12-20T11:27:14;13.55;;;7.57;;
66603;SDS011;53460;39.612;8.822;2023-12-20T11:29:40;8.25;;;5.20;;
66603;SDS011;53460;39.612;8.822;2023-12-20T11:32:39;10.88;;;4.00;;
66603;SDS011;53460;39.612;8.822;2023-12-20T11:35:16;11.15;;;4.78;;
66603;SDS011;53460;39.612;8.822;2023-12-20T11:37:44;11.75;;;3.90;;
66603;SDS011;53460;39.612;8.822;2023-12-20T11:40:15;13.13;;;3.45;;
66603;SDS011;53460;39.612;8.822;2023-12-20T11:42:48;9.55;;;4.60;;
66603;SDS011;53460;39.612;8.822;2023-12-20T11:45:15;9.83;;;4.80;;
66603;SDS011;53460;39.612;8.822;2023-12-20T11:47:43;11.65;;;4.00;;
66603;SDS011;53460;39.612;8.822;2023-12-20T11:50:11;10.65;;;4.32;;
66603;SDS011;53460;39.612;8.822;2023-12-20T11:52:37;9.27;;;4.40;;
66603;SDS011;53460;39.612;8.822;2023-12-20T11:55:03;8.50;;;4.60;;
66603;SDS011;53460;39.612;8.822;2023-12-20T11:57:29;9.45;;;4.65;;
66603;SDS011;53460;39.612;8.822;2023-12-20T11:59:55;9.73;;;3.15;;
66603;SDS011;53460;39.612;8.822;2023-12-20T12:02:21;6.97;;;2.25;;
66603;SDS011;53460;39.612;8.822;2023-12-20T12:04:49;5.78;;;2.10;;
66603;SDS011;53460;39.612;8.822;2023-12-20T12:07:16;5.45;;;2.50;;
66603;SDS011;53460;39.612;8.822;2023-12-20T12:09:42;6.82;;;2.33;;
66603;SDS011;53460;39.612;8.822;2023-12-20T12:12:08;10.35;;;2.75;;
66603;SDS011;53460;39.612;8.822;2023-12-20T12:14:34;7.03;;;2.70;;
66603;SDS011;53460;39.612;8.822;2023-12-20T12:17:02;6.93;;;2.80;;
66603;SDS011;53460;39.612;8.822;2023-12-20T12:19:28;8.70;;;2.67;;
66603;SDS011;53460;39.612;8.822;2023-12-20T12:22:13;10.00;;;3.00;;
66603;SDS011;53460;39.612;8.822;2023-12-20T12:24:41;10.95;;;3.60;;
66603;SDS011;53460;39.612;8.822;2023-12-20T12:27:07;8.57;;;2.38;;
66603;SDS011;53460;39.612;8.822;2023-12-20T12:29:37;12.75;;;2.55;;
66603;SDS011;53460;39.612;8.822;2023-12-20T12:32:06;9.23;;;2.85;;
66603;SDS011;53460;39.612;8.822;2023-12-20T12:34:34;10.65;;;3.35;;
66603;SDS011;53460;39.612;8.822;2023-12-20T12:37:00;7.97;;;3.45;;
66603;SDS011;53460;39.612;8.822;2023-12-20T12:39:27;9.68;;;4.38;;
66603;SDS011;53460;39.612;8.822;2023-12-20T12:41:53;14.18;;;5.05;;
66603;SDS011;53460;39.612;8.822;2023-12-20T12:44:19;10.85;;;4.75;;
66603;SDS011;53460;39.612;8.822;2023-12-20T12:46:48;9.05;;;3.63;;
66603;SDS011;53460;39.612;8.822;2023-12-20T12:49:16;12.32;;;3.30;;
66603;SDS011;53460;39.612;8.822;2023-12-20T12:51:42;9.82;;;3.58;;
66603;SDS011;53460;39.612;8.822;2023-12-20T12:54:09;13.20;;;3.42;;
66603;SDS011;53460;39.612;8.822;2023-12-20T12:56:35;10.43;;;3.22;;
66603;SDS011;53460;39.612;8.822;2023-12-20T12:59:01;9.48;;;2.65;;
66603;SDS011;53460;39.612;8.822;2023-12-20T13:01:27;12.73;;;3.50;;
66603;SDS011;53460;39.612;8.822;2023-12-20T13:03:53;7.13;;;2.40;;
66603;SDS011;53460;39.612;8.822;2023-12-20T13:06:19;8.80;;;3.03;;
66603;SDS011;53460;39.612;8.822;2023-12-20T13:08:45;10.07;;;2.78;;
66603;SDS011;53460;39.612;8.822;2023-12-20T13:11:11;11.93;;;3.13;;
66603;SDS011;53460;39.612;8.822;2023-12-20T13:13:37;7.05;;;2.60;;
66603;SDS011;53460;39.612;8.822;2023-12-20T13:16:03;12.57;;;3.15;;
66603;SDS011;53460;39.612;8.822;2023-12-20T13:18:29;10.15;;;3.20;;
66603;SDS011;53460;39.612;8.822;2023-12-20T13:20:54;9.20;;;2.60;;
66603;SDS011;53460;39.612;8.822;2023-12-20T13:23:20;7.82;;;2.83;;
66603;SDS011;53460;39.612;8.822;2023-12-20T13:25:45;5.00;;;2.20;;
66603;SDS011;53460;39.612;8.822;2023-12-20T13:28:12;10.98;;;3.05;;
66603;SDS011;53460;39.612;8.822;2023-12-20T13:30:38;9.73;;;2.67;;
66603;SDS011;53460;39.612;8.822;2023-12-20T13:33:04;6.22;;;2.42;;
66603;SDS011;53460;39.612;8.822;2023-12-20T13:35:30;8.60;;;2.85;;
66603;SDS011;53460;39.612;8.822;2023-12-20T13:37:57;9.70;;;2.65;;
66603;SDS011;53460;39.612;8.822;2023-12-20T13:40:23;7.28;;;2.03;;
66603;SDS011;53460;39.612;8.822;2023-12-20T13:42:49;7.45;;;2.53;;
66603;SDS011;53460;39.612;8.822;2023-12-20T13:45:15;8.32;;;2.67;;
66603;SDS011;53460;39.612;8.822;2023-12-20T13:47:41;10.40;;;6.28;;
66603;SDS011;53460;39.612;8.822;2023-12-20T13:50:06;9.50;;;5.00;;
66603;SDS011;53460;39.612;8.822;2023-12-20T13:52:32;7.07;;;3.30;;
66603;SDS011;53460;39.612;8.822;2023-12-20T13:54:58;16.05;;;4.95;;
66603;SDS011;53460;39.612;8.822;2023-12-20T13:57:23;15.07;;;5.32;;
66603;SDS011;53460;39.612;8.822;2023-12-20T13:59:49;11.30;;;5.05;;
66603;SDS011;53460;39.612;8.822;2023-12-20T14:02:18;13.00;;;4.72;;
66603;SDS011;53460;39.612;8.822;2023-12-20T14:04:43;11.70;;;3.30;;
66603;SDS011;53460;39.612;8.822;2023-12-20T14:07:09;9.35;;;3.08;;
66603;SDS011;53460;39.612;8.822;2023-12-20T14:09:35;8.88;;;2.55;;
66603;SDS011;53460;39.612;8.822;2023-12-20T14:12:01;7.28;;;2.75;;
66603;SDS011;53460;39.612;8.822;2023-12-20T14:14:27;7.15;;;2.92;;
66603;SDS011;53460;39.612;8.822;2023-12-20T14:16:53;9.98;;;2.72;;
66603;SDS011;53460;39.612;8.822;2023-12-20T14:19:19;9.48;;;2.85;;
66603;SDS011;53460;39.612;8.822;2023-12-20T14:21:44;7.43;;;3.28;;
66603;SDS011;53460;39.612;8.822;2023-12-20T14:24:12;9.25;;;3.05;;
66603;SDS011;53460;39.612;8.822;2023-12-20T14:26:42;6.55;;;2.97;;
66603;SDS011;53460;39.612;8.822;2023-12-20T14:29:08;9.30;;;2.92;;
66603;SDS011;53460;39.612;8.822;2023-12-20T14:31:34;13.13;;;3.40;;
66603;SDS011;53460;39.612;8.822;2023-12-20T14:34:00;5.85;;;2.50;;
66603;SDS011;53460;39.612;8.822;2023-12-20T14:36:29;5.40;;;2.38;;
66603;SDS011;53460;39.612;8.822;2023-12-20T14:38:56;9.15;;;2.83;;
66603;SDS011;53460;39.612;8.822;2023-12-20T14:41:22;8.95;;;3.40;;
66603;SDS011;53460;39.612;8.822;2023-12-20T14:43:50;8.23;;;3.85;;
66603;SDS011;53460;39.612;8.822;2023-12-20T14:46:17;9.55;;;4.10;;
66603;SDS011;53460;39.612;8.822;2023-12-20T14:48:42;10.02;;;4.40;;
66603;SDS011;53460;39.612;8.822;2023-12-20T14:51:08;10.52;;;4.30;;